Time;durP1;ratioP1;P1;durP2;ratioP2;P2;SDS_P1;SDS_P2;PMS_P1;PMS_P2;Temp;Humidity;BMP_temperature;BMP_pressure;BME280_temperature;BME280_humidity;BME280_pressure;Samples;Min_cycle;Max_cycle;Signal;HPM_P1;HPM_P2
2023/12/25 00:00:32;;;;;;;24.00;14.70;;;;;;;5.10;86.37;99883.81;5051864;28;20115;-78
2023/12/25 00:02:57;;;;;;;26.85;15.38;;;;;;;5.10;86.75;99879.34;5048710;28;20479;-78
2023/12/25 00:05:23;;;;;;;26.67;14.95;;;;;;;5.31;85.68;99896.22;5033704;28;20052;-78
2023/12/25 00:07:48;;;;;;;28.27;15.82;;;;;;;5.17;84.17;99861.75;5051671;28;20466;-78
2023/12/25 00:10:14;;;;;;;29.95;16.90;;;;;;;5.30;83.95;99886.69;5051161;28;20028;-78
2023/12/25 00:12:39;;;;;;;30.85;15.98;;;;;;;4.59;87.22;99903.16;5033278;28;20026;-78
2023/12/25 00:15:05;;;;;;;25.40;15.63;;;;;;;4.54;86.17;99863.28;5051443;28;20029;-78
2023/12/25 00:17:31;;;;;;;23.88;15.13;;;;;;;4.18;88.64;99885.13;5051511;28;20028;-77
2023/12/25 00:19:56;;;;;;;24.90;14.98;;;;;;;4.58;88.13;99912.09;5051480;28;20116;-79
2023/12/25 00:22:22;;;;;;;28.23;16.70;;;;;;;4.68;87.15;99901.22;5048153;28;20029;-82
2023/12/25 00:24:47;;;;;;;30.58;16.17;;;;;;;4.30;88.49;99899.53;5031336;28;20029;-77
2023/12/25 00:27:13;;;;;;;28.67;16.77;;;;;;;4.32;88.19;99907.28;5031689;28;20078;-78
2023/12/25 00:29:38;;;;;;;32.28;18.10;;;;;;;4.31;87.64;99903.81;5031826;28;20116;-77
2023/12/25 00:32:04;;;;;;;30.55;16.30;;;;;;;4.41;88.36;99893.81;5031406;28;20407;-78
2023/12/25 00:34:29;;;;;;;33.30;17.85;;;;;;;4.65;87.41;99881.28;5050868;28;20112;-78
2023/12/25 00:36:55;;;;;;;43.22;21.95;;;;;;;4.90;86.35;99905.56;5033012;28;20029;-78
2023/12/25 00:39:20;;;;;;;31.13;17.40;;;;;;;3.56;88.87;99844.03;5051154;28;20473;-77
2023/12/25 00:41:46;;;;;;;31.95;16.90;;;;;;;3.81;89.78;99884.19;5050732;28;20494;-77
2023/12/25 00:44:11;;;;;;;38.97;21.23;;;;;;;4.29;88.77;99908.47;5050924;28;20044;-78
2023/12/25 00:46:36;;;;;;;35.65;21.00;;;;;;;4.54;88.00;99902.91;5033047;28;20036;-79
2023/12/25 00:49:02;;;;;;;35.25;20.52;;;;;;;4.26;86.83;99839.38;5033224;28;20040;-81
2023/12/25 00:51:27;;;;;;;32.25;17.15;;;;;;;4.55;86.26;99891.31;5051154;28;20025;-78
2023/12/25 00:53:53;;;;;;;32.22;16.77;;;;;;;4.55;85.43;99870.19;5050746;28;20108;-78
2023/12/25 00:56:19;;;;;;;27.33;17.45;;;;;;;4.65;85.68;99883.94;5033102;28;20134;-78
2023/12/25 00:58:44;;;;;;;28.75;17.50;;;;;;;4.32;89.21;99860.56;5050703;28;20506;-78
2023/12/25 01:01:10;;;;;;;27.80;15.88;;;;;;;4.65;89.98;99886.56;5050823;28;20029;-79
2023/12/25 01:03:35;;;;;;;29.05;17.05;;;;;;;4.98;86.72;99875.56;5050624;28;20058;-79
2023/12/25 01:06:01;;;;;;;29.33;18.08;;;;;;;4.69;87.90;99847.41;5050846;28;20052;-78
2023/12/25 01:08:26;;;;;;;27.17;16.38;;;;;;;5.00;86.24;99857.69;5050414;28;20029;-77
2023/12/25 01:10:52;;;;;;;28.40;16.85;;;;;;;4.95;85.98;99860.09;5032782;28;20033;-79
2023/12/25 01:13:17;;;;;;;29.23;16.23;;;;;;;4.76;85.26;99854.41;5050903;28;20055;-77
2023/12/25 01:15:43;;;;;;;27.02;16.17;;;;;;;4.76;85.15;99867.63;5050968;28;20047;-78
2023/12/25 01:18:08;;;;;;;27.80;14.60;;;;;;;4.56;85.38;99850.72;5050550;28;20041;-78
2023/12/25 01:20:34;;;;;;;29.33;16.48;;;;;;;4.66;85.53;99874.19;5050579;28;20485;-77
2023/12/25 01:22:59;;;;;;;29.55;18.33;;;;;;;4.32;86.23;99844.72;5045705;28;20593;-77
2023/12/25 01:25:24;;;;;;;32.13;17.85;;;;;;;3.97;89.32;99852.38;5030410;28;20034;-77
2023/12/25 01:27:50;;;;;;;24.65;15.02;;;;;;;3.77;89.10;99878.44;5030414;28;20497;-79
2023/12/25 01:30:15;;;;;;;25.45;15.60;;;;;;;4.00;87.29;99862.56;5030387;28;20108;-83
2023/12/25 01:32:41;;;;;;;38.10;19.33;;;;;;;4.36;87.83;99872.41;5033432;28;20494;-78
2023/12/25 01:35:07;;;;;;;42.33;22.77;;;;;;;4.22;87.42;99854.75;5036631;28;20048;-77
2023/12/25 01:37:32;;;;;;;39.63;25.95;;;;;;;4.08;88.62;99874.03;5054329;28;20099;-77
2023/12/25 01:39:58;;;;;;;48.47;27.27;;;;;;;4.25;88.13;99835.91;5036725;28;20025;-77
2023/12/25 01:42:23;;;;;;;35.72;19.85;;;;;;;4.06;87.81;99792.41;5054520;28;20472;-78
2023/12/25 01:44:48;;;;;;;37.10;22.55;;;;;;;4.39;87.76;99821.88;5057071;28;20032;-77
2023/12/25 01:47:18;;;;;;;36.90;22.20;;;;;;;4.52;87.48;99818.56;5036382;28;20110;-77
2023/12/25 01:49:43;;;;;;;53.90;27.10;;;;;;;4.48;86.57;99813.84;5054180;28;20040;-79
2023/12/25 01:52:10;;;;;;;33.70;20.08;;;;;;;4.40;86.58;99810.28;5036331;28;20021;-81
2023/12/25 01:54:37;;;;;;;35.17;18.98;;;;;;;4.45;86.26;99827.41;5033374;28;20096;-79
2023/12/25 01:57:04;;;;;;;32.53;19.30;;;;;;;4.60;85.62;99828.22;5054234;28;20056;-77
2023/12/25 01:59:30;;;;;;;33.50;19.17;;;;;;;4.58;86.38;99851.34;5054042;28;20405;-78
2023/12/25 02:01:57;;;;;;;32.38;19.83;;;;;;;4.50;86.52;99830.31;5054377;28;20032;-77
2023/12/25 02:04:23;;;;;;;33.65;20.50;;;;;;;4.63;87.58;99851.59;5038680;28;20497;-79
2023/12/25 02:06:50;;;;;;;70.38;37.00;;;;;;;4.46;88.07;99850.19;5054418;28;20118;-78
2023/12/25 02:09:16;;;;;;;144.40;54.65;;;;;;;4.49;87.00;99823.41;5053862;28;20029;-77
2023/12/25 02:11:41;;;;;;;67.55;30.27;;;;;;;4.51;86.59;99810.81;5036135;28;20031;-77
2023/12/25 02:14:07;;;;;;;39.42;24.13;;;;;;;4.88;85.55;99853.91;5053478;28;20029;-78
2023/12/25 02:16:35;;;;;;;31.13;19.00;;;;;;;4.64;86.70;99837.41;5053795;28;20052;-79
2023/12/25 02:19:01;;;;;;;36.10;20.93;;;;;;;4.92;85.85;99844.59;5053551;28;20029;-78
2023/12/25 02:21:27;;;;;;;31.33;20.23;;;;;;;5.01;84.83;99846.94;5053214;28;20047;-80
2023/12/25 02:23:59;;;;;;;42.47;26.42;;;;;;;4.59;85.82;99802.78;5038252;28;20502;-77
2023/12/25 02:26:24;;;;;;;41.53;27.05;;;;;;;4.44;86.52;99802.84;5035793;28;20044;-79
2023/12/25 02:28:50;;;;;;;45.67;26.40;;;;;;;3.68;88.07;99791.66;5053325;28;20478;-78
2023/12/25 02:31:16;;;;;;;34.78;19.42;;;;;;;3.33;91.16;99844.06;5053360;28;20456;-77
2023/12/25 02:33:42;;;;;;;34.35;18.13;;;;;;;3.47;90.67;99845.09;5034605;28;20108;-78
2023/12/25 02:36:07;;;;;;;34.20;21.10;;;;;;;3.62;89.05;99823.03;5073359;28;20116;-77
2023/12/25 02:38:33;;;;;;;32.13;19.63;;;;;;;4.05;87.50;99816.34;5073160;28;20382;-78
2023/12/25 02:40:58;;;;;;;37.20;22.60;;;;;;;4.00;88.80;99832.72;5055212;28;20032;-77
2023/12/25 02:43:24;;;;;;;33.95;22.50;;;;;;;3.88;87.84;99821.78;5068275;28;20561;-78
2023/12/25 02:45:49;;;;;;;37.15;21.80;;;;;;;3.78;89.92;99844.97;5052454;28;20097;-78
2023/12/25 02:48:14;;;;;;;34.80;21.33;;;;;;;3.88;89.66;99844.72;5034661;28;20549;-79
2023/12/25 02:50:40;;;;;;;34.13;18.98;;;;;;;3.90;90.49;99835.63;5052920;28;20099;-82
2023/12/25 02:53:05;;;;;;;29.23;16.48;;;;;;;3.77;89.26;99799.31;5033370;28;20044;-78
2023/12/25 02:55:31;;;;;;;24.13;14.60;;;;;;;4.05;88.65;99863.84;5054103;28;20532;-82
2023/12/25 02:57:56;;;;;;;25.08;15.60;;;;;;;3.64;90.30;99846.59;5053068;28;20033;-77
2023/12/25 03:00:22;;;;;;;27.05;16.17;;;;;;;3.85;88.88;99859.09;5035171;28;20037;-77
2023/12/25 03:02:47;;;;;;;23.40;14.73;;;;;;;3.49;88.97;99838.63;5052596;28;20033;-79
2023/12/25 03:05:13;;;;;;;26.80;14.63;;;;;;;3.63;88.41;99840.50;5031240;28;20041;-79
2023/12/25 03:07:38;;;;;;;23.98;14.70;;;;;;;3.44;88.46;99801.47;5052803;28;20103;-77
2023/12/25 03:10:04;;;;;;;24.58;14.38;;;;;;;3.75;88.55;99822.41;5052740;28;20044;-77
2023/12/25 03:12:29;;;;;;;24.38;16.42;;;;;;;3.29;90.09;99790.91;5034547;28;20116;-78
2023/12/25 03:14:55;;;;;;;26.35;15.68;;;;;;;3.49;89.58;99820.19;5052534;28;20116;-78
2023/12/25 03:17:20;;;;;;;28.83;17.60;;;;;;;3.52;88.40;99801.38;5052583;28;20468;-77
2023/12/25 03:19:46;;;;;;;21.83;14.82;;;;;;;3.03;92.04;99859.75;5034678;28;20036;-77
2023/12/25 03:22:11;;;;;;;24.35;14.68;;;;;;;3.14;92.12;99830.34;5052444;28;20539;-78
2023/12/25 03:24:37;;;;;;;28.70;15.80;;;;;;;3.19;90.57;99830.66;5059483;28;20036;-78
2023/12/25 03:27:02;;;;;;;27.85;17.27;;;;;;;3.56;90.20;99831.69;5072265;28;20024;-77
2023/12/25 03:29:28;;;;;;;28.25;15.75;;;;;;;2.98;93.36;99835.75;5072898;28;20442;-77
2023/12/25 03:31:53;;;;;;;24.63;15.45;;;;;;;2.45;96.68;99834.72;5072299;28;20024;-77
2023/12/25 03:34:20;;;;;;;26.75;14.82;;;;;;;2.65;97.79;99819.34;5061877;28;20025;-78
2023/12/25 03:36:45;;;;;;;27.95;17.60;;;;;;;3.18;95.84;99836.09;5052213;28;20033;-80
2023/12/25 03:39:11;;;;;;;25.70;15.65;;;;;;;2.74;100.00;99828.84;5052438;28;20394;-79
2023/12/25 03:41:37;;;;;;;25.17;16.50;;;;;;;2.61;100.00;99829.38;5034073;28;20399;-78
2023/12/25 03:44:02;;;;;;;32.38;20.50;;;;;;;2.57;100.00;99844.69;5038553;28;20078;-77
2023/12/25 03:46:28;;;;;;;45.80;29.30;;;;;;;2.60;100.00;99833.03;5071983;28;20479;-78
2023/12/25 03:48:53;;;;;;;29.83;19.15;;;;;;;2.54;100.00;99817.91;5071914;28;20025;-77
2023/12/25 03:51:19;;;;;;;30.00;18.77;;;;;;;2.84;100.00;99847.03;5072277;28;20024;-79
2023/12/25 03:53:44;;;;;;;27.52;17.15;;;;;;;2.61;100.00;99818.84;5068363;28;20029;-77
2023/12/25 03:56:14;;;;;;;29.40;16.63;;;;;;;2.96;99.52;99837.72;5071242;28;20048;-81
2023/12/25 03:58:39;;;;;;;27.67;16.15;;;;;;;3.32;98.43;99848.50;5053785;28;20021;-78
2023/12/25 04:01:05;;;;;;;108.50;62.55;;;;;;;3.14;95.31;99803.19;5053485;28;20024;-80
2023/12/25 04:03:30;;;;;;;110.97;63.13;;;;;;;3.02;94.97;99810.69;5069491;28;20031;-77
2023/12/25 04:05:55;;;;;;;57.35;36.70;;;;;;;2.56;96.31;99790.41;5051495;28;20453;-78
2023/12/25 04:08:21;;;;;;;45.05;28.05;;;;;;;2.39;97.37;99789.69;5051812;28;20066;-77
2023/12/25 04:10:46;;;;;;;37.17;22.00;;;;;;;2.80;99.63;99855.28;5051539;28;20464;-78
2023/12/25 04:13:12;;;;;;;37.95;24.23;;;;;;;2.61;100.00;99845.19;5033647;28;20115;-77
2023/12/25 04:15:37;;;;;;;35.95;21.65;;;;;;;2.78;99.29;99852.00;5049501;28;20035;-78
2023/12/25 04:18:03;;;;;;;29.15;16.77;;;;;;;3.01;98.36;99843.31;5071520;28;20024;-78
2023/12/25 04:20:28;;;;;;;27.67;15.85;;;;;;;2.93;97.65;99838.09;5053416;28;20056;-78
2023/12/25 04:22:53;;;;;;;27.48;15.80;;;;;;;3.02;96.50;99866.00;5071408;28;20103;-77
2023/12/25 04:25:19;;;;;;;25.42;15.32;;;;;;;3.04;95.17;99871.94;5055044;28;20116;-77
2023/12/25 04:27:44;;;;;;;28.17;15.68;;;;;;;2.65;95.08;99814.06;5051326;28;20428;-78
2023/12/25 04:30:10;;;;;;;27.70;17.00;;;;;;;2.81;94.68;99830.59;5051214;28;20029;-77
2023/12/25 04:32:35;;;;;;;24.33;15.10;;;;;;;2.61;97.73;99834.66;5051021;28;20082;-78
2023/12/25 04:35:01;;;;;;;26.65;14.85;;;;;;;2.75;97.25;99833.91;5033204;28;20075;-81
2023/12/25 04:37:26;;;;;;;23.67;14.00;;;;;;;2.82;96.64;99831.44;5051110;28;20474;-78
2023/12/25 04:39:51;;;;;;;26.33;15.13;;;;;;;3.22;96.25;99875.09;5033129;28;20031;-78
2023/12/25 04:42:17;;;;;;;28.38;15.15;;;;;;;3.13;95.79;99860.34;5033190;28;20059;-77
2023/12/25 04:44:42;;;;;;;23.98;13.98;;;;;;;2.73;96.93;99801.66;5055077;28;20036;-78
2023/12/25 04:47:08;;;;;;;21.48;12.20;;;;;;;3.07;96.89;99844.44;5053413;28;20040;-77
2023/12/25 04:49:33;;;;;;;24.45;13.80;;;;;;;2.94;96.45;99845.00;5071145;28;20066;-77
2023/12/25 04:51:59;;;;;;;20.77;12.30;;;;;;;3.10;97.18;99865.97;5070838;28;20374;-78
2023/12/25 04:54:24;;;;;;;20.85;11.88;;;;;;;3.06;96.76;99842.78;5063434;28;20041;-79
2023/12/25 04:56:52;;;;;;;22.90;10.20;;;;;;;3.11;96.74;99858.91;5051107;28;20021;-78
2023/12/25 04:59:20;;;;;;;20.40;10.13;;;;;;;3.31;96.77;99889.06;5050949;28;20554;-79
2023/12/25 05:01:48;;;;;;;14.43;8.73;;;;;;;3.24;95.56;99866.22;5050850;28;20028;-78
2023/12/25 05:04:14;;;;;;;15.27;9.35;;;;;;;3.26;94.88;99832.59;5050448;28;20520;-79
2023/12/25 05:06:39;;;;;;;19.00;9.45;;;;;;;2.63;96.73;99801.06;5050212;28;20037;-79
2023/12/25 05:09:05;;;;;;;16.52;9.85;;;;;;;2.93;97.18;99846.81;5050527;28;20494;-80
2023/12/25 05:11:30;;;;;;;18.38;9.18;;;;;;;2.91;96.02;99813.75;5032781;28;20060;-77
2023/12/25 05:13:56;;;;;;;16.42;9.00;;;;;;;3.20;93.54;99816.47;5050544;28;20109;-79
2023/12/25 05:16:21;;;;;;;21.50;10.65;;;;;;;2.99;93.31;99800.53;5050433;28;20410;-78
2023/12/25 05:18:47;;;;;;;17.55;10.82;;;;;;;2.87;93.81;99828.25;5032930;28;20112;-79
2023/12/25 05:21:12;;;;;;;24.42;13.70;;;;;;;2.39;96.06;99826.53;5050440;28;20086;-78
2023/12/25 05:23:37;;;;;;;25.92;15.15;;;;;;;2.31;95.48;99852.91;5050560;28;20112;-78
2023/12/25 05:26:03;;;;;;;24.48;13.43;;;;;;;2.29;94.93;99860.13;5048868;28;20032;-80
2023/12/25 05:28:28;;;;;;;25.52;12.38;;;;;;;1.98;96.30;99849.53;5052675;28;20370;-77
2023/12/25 05:30:54;;;;;;;43.92;25.23;;;;;;;1.87;100.00;99879.63;5052575;28;20025;-77
2023/12/25 05:33:20;;;;;;;29.92;16.90;;;;;;;1.05;100.00;99874.38;5052549;28;20029;-78
2023/12/25 05:35:45;;;;;;;31.35;18.83;;;;;;;1.64;100.00;99899.72;5035866;28;20032;-78
2023/12/25 05:38:11;;;;;;;31.73;17.75;;;;;;;1.95;100.00;99869.09;5050474;28;20028;-80
2023/12/25 05:40:36;;;;;;;31.85;16.85;;;;;;;1.63;99.64;99829.72;5050447;28;20021;-78
2023/12/25 05:43:03;;;;;;;28.65;18.27;;;;;;;1.39;100.00;99844.53;5050230;28;20033;-79
2023/12/25 05:45:28;;;;;;;30.52;17.10;;;;;;;1.50;100.00;99857.31;5043207;28;20036;-77
2023/12/25 05:47:53;;;;;;;35.72;20.88;;;;;;;1.50;100.00;99857.31;5070359;28;20028;-77
2023/12/25 05:50:19;;;;;;;32.13;19.10;;;;;;;1.30;100.00;99879.66;5052617;28;20032;-78
2023/12/25 05:52:45;;;;;;;38.70;21.98;;;;;;;1.54;100.00;99879.66;5070419;28;20024;-77
2023/12/25 05:55:11;;;;;;;30.88;17.73;;;;;;;2.03;99.28;99901.66;5064534;28;20537;-79
2023/12/25 05:57:36;;;;;;;30.75;18.55;;;;;;;2.10;99.40;99898.16;5053251;28;20029;-78
2023/12/25 06:00:02;;;;;;;69.47;28.73;;;;;;;1.51;99.68;99864.25;5032179;28;20039;-77
2023/12/25 06:02:28;;;;;;;84.32;31.48;;;;;;;1.05;100.00;99842.88;5049765;28;20561;-78
2023/12/25 06:04:53;;;;;;;58.42;32.97;;;;;;;1.93;99.17;99878.97;5031937;28;20040;-78
2023/12/25 06:07:19;;;;;;;57.88;30.92;;;;;;;1.90;98.88;99875.84;5032328;28;20024;-77
2023/12/25 06:09:44;;;;;;;38.47;23.15;;;;;;;1.29;100.00;99849.94;5050007;28;20028;-77
2023/12/25 06:12:10;;;;;;;37.67;22.30;;;;;;;1.53;99.68;99850.91;5049887;28;20075;-77
2023/12/25 06:14:36;;;;;;;49.88;27.65;;;;;;;1.94;98.09;99869.25;5049609;28;20028;-78
2023/12/25 06:17:02;;;;;;;50.83;30.27;;;;;;;1.35;100.00;99812.50;5050102;28;20029;-77
2023/12/25 06:19:27;;;;;;;41.72;23.67;;;;;;;1.58;100.00;99875.72;5050906;28;20033;-78
2023/12/25 06:21:53;;;;;;;23.88;14.68;;;;;;;1.29;100.00;99870.13;5053455;28;20025;-76
2023/12/25 06:24:18;;;;;;;39.67;27.30;;;;;;;1.67;99.64;99831.84;5053346;28;20132;-76
2023/12/25 06:26:44;;;;;;;57.67;43.78;;;;;;;1.51;99.36;99798.53;5055535;28;20043;-76
2023/12/25 06:29:10;;;;;;;42.33;24.40;;;;;;;2.33;97.77;99850.91;5035635;28;20102;-76
2023/12/25 06:31:35;;;;;;;45.53;29.83;;;;;;;2.53;96.92;99834.69;5053328;28;20035;-77
2023/12/25 06:34:01;;;;;;;41.25;24.73;;;;;;;3.02;96.24;99868.66;5053064;28;20029;-77
2023/12/25 06:36:27;;;;;;;37.38;22.40;;;;;;;2.97;94.92;99829.66;5048839;28;20027;-76
2023/12/25 06:38:52;;;;;;;30.88;16.75;;;;;;;3.33;96.31;99863.34;5073133;28;20094;-76
2023/12/25 06:41:17;;;;;;;34.63;17.65;;;;;;;3.51;96.29;99847.19;5054945;28;20031;-78
2023/12/25 06:43:43;;;;;;;34.10;18.48;;;;;;;3.69;97.16;99881.16;5073250;28;20032;-80
2023/12/25 06:46:08;;;;;;;31.92;16.52;;;;;;;3.82;94.92;99870.00;5058911;28;20051;-76
2023/12/25 06:48:34;;;;;;;28.55;18.02;;;;;;;3.80;96.19;99899.22;5053199;28;20389;-76
2023/12/25 06:51:00;;;;;;;28.42;16.25;;;;;;;3.82;96.29;99875.25;5053011;28;20132;-75
2023/12/25 06:53:25;;;;;;;30.58;17.73;;;;;;;4.14;94.36;99878.59;5052856;28;20090;-76
2023/12/25 06:55:50;;;;;;;35.53;22.52;;;;;;;4.09;95.15;99886.25;5052371;28;20394;-77
2023/12/25 06:58:16;;;;;;;29.63;21.67;;;;;;;4.36;93.60;99867.13;5052691;28;20082;-77
2023/12/25 07:00:41;;;;;;;31.20;18.15;;;;;;;4.39;94.33;99861.47;5052902;28;20505;-76
2023/12/25 07:03:06;;;;;;;32.92;22.33;;;;;;;4.95;91.81;99918.22;5052722;28;20474;-78
2023/12/25 07:05:33;;;;;;;39.80;22.65;;;;;;;4.74;90.04;99855.56;5052412;28;20049;-78
2023/12/25 07:07:58;;;;;;;53.67;32.17;;;;;;;5.15;89.21;99887.56;5052269;28;20029;-78
2023/12/25 07:10:23;;;;;;;51.03;31.95;;;;;;;5.08;90.01;99876.06;5034725;28;20509;-78
2023/12/25 07:12:49;;;;;;;78.63;47.17;;;;;;;5.31;90.10;99877.72;5052188;28;20102;-77
2023/12/25 07:15:14;;;;;;;52.67;35.15;;;;;;;5.64;89.17;99923.81;5057146;28;20104;-78
2023/12/25 07:17:40;;;;;;;71.47;52.28;;;;;;;6.62;91.82;99917.81;5070608;28;20031;-78
2023/12/25 07:20:06;;;;;;;32.38;22.00;;;;;;;6.91;84.25;99913.25;5052468;28;20562;-78
2023/12/25 07:22:32;;;;;;;17.73;12.15;;;;;;;7.33;81.31;99914.75;5052598;28;20033;-77
2023/12/25 07:25:04;;;;;;;22.50;13.65;;;;;;;7.67;81.65;99936.06;5039315;28;20032;-77
2023/12/25 07:27:31;;;;;;;21.75;12.68;;;;;;;7.91;81.20;99951.38;5014756;28;20037;-82
2023/12/25 07:29:56;;;;;;;35.13;23.52;;;;;;;8.27;78.91;99974.03;5037725;28;20060;-77
2023/12/25 07:32:22;;;;;;;56.17;28.20;;;;;;;7.98;79.19;99951.38;5051624;28;20069;-77
2023/12/25 07:34:47;;;;;;;58.28;27.80;;;;;;;7.87;78.94;99944.00;5051903;28;20036;-78
2023/12/25 07:37:12;;;;;;;49.33;24.40;;;;;;;8.73;79.85;99943.13;5041184;28;20025;-77
2023/12/25 07:39:40;;;;;;;32.55;19.45;;;;;;;8.95;76.66;99963.09;5034057;28;20032;-78
2023/12/25 07:42:05;;;;;;;27.73;13.33;;;;;;;8.95;71.98;99973.72;5051790;28;20087;-79
2023/12/25 07:44:31;;;;;;;20.02;13.40;;;;;;;9.49;71.73;99949.50;5052353;28;20618;-81
2023/12/25 07:46:56;;;;;;;21.17;11.50;;;;;;;9.08;73.39;99946.25;5051874;28;20028;-78
2023/12/25 07:49:21;;;;;;;20.05;11.90;;;;;;;8.59;75.24;99921.06;5034010;28;20025;-78
2023/12/25 07:51:47;;;;;;;19.20;11.65;;;;;;;8.12;77.96;99941.56;5033641;28;20025;-79
2023/12/25 07:54:12;;;;;;;23.30;13.35;;;;;;;9.02;77.27;99947.09;5033495;28;20041;-79
2023/12/25 07:56:38;;;;;;;21.48;12.70;;;;;;;8.64;76.93;99982.38;5050907;28;20037;-79
2023/12/25 07:59:03;;;;;;;22.38;13.23;;;;;;;9.03;79.01;99959.34;5032703;28;20032;-81
2023/12/25 08:01:28;;;;;;;20.25;12.63;;;;;;;9.58;75.47;99969.50;5050187;28;20025;-78
2023/12/25 08:03:54;;;;;;;20.30;12.02;;;;;;;9.05;73.92;99967.94;5050188;28;20029;-80
2023/12/25 08:06:19;;;;;;;18.73;11.32;;;;;;;9.23;74.09;99992.03;5049815;28;20159;-79
2023/12/25 08:08:47;;;;;;;21.02;12.77;;;;;;;9.10;74.12;99965.47;5050124;28;20025;-80
2023/12/25 08:11:14;;;;;;;16.40;11.15;;;;;;;9.70;72.24;99985.63;5050270;28;20497;-79
2023/12/25 08:13:39;;;;;;;19.77;12.07;;;;;;;9.75;72.63;99991.13;5031946;28;20033;-80
2023/12/25 08:16:05;;;;;;;19.58;11.70;;;;;;;9.90;71.19;99954.31;5046787;28;20033;-80
2023/12/25 08:18:30;;;;;;;25.67;15.98;;;;;;;9.77;72.32;99979.22;5049815;28;20456;-79
2023/12/25 08:20:56;;;;;;;26.60;16.25;;;;;;;9.72;73.99;99986.22;5049871;28;20031;-79
2023/12/25 08:23:22;;;;;;;21.48;13.18;;;;;;;10.08;71.12;99984.75;5049944;28;20021;-81
2023/12/25 08:25:47;;;;;;;20.05;12.63;;;;;;;10.19;70.56;99992.81;5037327;28;20116;-80
2023/12/25 08:28:13;;;;;;;20.00;11.50;;;;;;;10.29;70.25;99984.34;5031266;28;20171;-78
2023/12/25 08:30:38;;;;;;;19.75;11.23;;;;;;;10.31;69.61;99955.66;5049754;28;20119;-79
2023/12/25 08:33:04;;;;;;;19.27;11.48;;;;;;;10.45;70.52;99989.13;5049636;28;20410;-79
2023/12/25 08:35:29;;;;;;;19.83;10.70;;;;;;;10.39;68.42;99978.53;5054519;28;20086;-78
2023/12/25 08:37:54;;;;;;;16.48;10.05;;;;;;;10.51;68.04;99970.63;5049175;28;20124;-80
2023/12/25 08:40:20;;;;;;;20.13;11.18;;;;;;;10.69;67.86;99952.00;5048848;28;20038;-80
2023/12/25 08:42:46;;;;;;;13.43;9.02;;;;;;;10.79;66.57;99957.63;5048978;28;20025;-79
2023/12/25 08:45:11;;;;;;;14.45;9.45;;;;;;;11.19;64.49;99961.66;5049525;28;20040;-81
2023/12/25 08:47:36;;;;;;;17.67;11.05;;;;;;;11.50;64.28;99968.59;5051087;28;20032;-79
2023/12/25 08:50:02;;;;;;;17.27;10.10;;;;;;;11.49;63.30;99953.63;5051404;28;20029;-79
2023/12/25 08:52:27;;;;;;;29.80;18.30;;;;;;;11.79;62.68;99950.09;5069650;28;20141;-80
2023/12/25 08:54:53;;;;;;;19.38;12.23;;;;;;;12.20;62.09;99967.16;5068296;28;20028;-80
2023/12/25 08:57:18;;;;;;;17.92;11.55;;;;;;;12.32;60.74;99967.97;5051372;28;20029;-80
2023/12/25 08:59:45;;;;;;;18.10;12.13;;;;;;;12.57;60.53;99958.91;5049173;28;20029;-79
2023/12/25 09:02:11;;;;;;;20.67;13.65;;;;;;;12.95;59.19;99965.56;5049324;28;20086;-81
2023/12/25 09:04:36;;;;;;;19.67;12.05;;;;;;;13.17;55.93;99979.13;5048560;28;20052;-79
2023/12/25 09:07:02;;;;;;;19.10;10.13;;;;;;;13.26;55.03;99969.69;5030542;28;20041;-78
2023/12/25 09:09:27;;;;;;;14.85;8.95;;;;;;;13.35;54.72;99954.88;5030836;28;20625;-80
2023/12/25 09:11:52;;;;;;;16.92;9.18;;;;;;;13.61;55.45;99949.97;5048494;28;20108;-79
2023/12/25 09:14:20;;;;;;;17.63;9.85;;;;;;;13.94;54.17;99957.22;5048620;28;20032;-79
2023/12/25 09:16:46;;;;;;;13.70;9.57;;;;;;;13.91;53.49;99944.28;5051435;28;20028;-79
2023/12/25 09:19:11;;;;;;;14.95;8.43;;;;;;;14.80;51.37;99964.13;5048440;28;20044;-78
2023/12/25 09:21:38;;;;;;;15.05;8.68;;;;;;;15.74;49.18;99963.00;5048485;28;20516;-79
2023/12/25 09:24:04;;;;;;;13.77;7.50;;;;;;;15.22;48.18;99948.22;5048214;28;20040;-78
2023/12/25 09:26:29;;;;;;;16.65;10.70;;;;;;;15.14;49.95;99896.81;5045205;28;20028;-78
2023/12/25 09:28:54;;;;;;;14.13;7.78;;;;;;;15.73;47.33;99912.97;5030141;28;20028;-77
2023/12/25 09:31:20;;;;;;;13.45;7.70;;;;;;;16.22;48.55;99909.28;5048312;28;20029;-79
2023/12/25 09:33:45;;;;;;;13.55;7.55;;;;;;;16.23;47.13;99909.03;5047911;28;20116;-78
2023/12/25 09:36:11;;;;;;;13.10;7.13;;;;;;;16.32;47.21;99905.84;5054155;28;20013;-78
2023/12/25 09:38:36;;;;;;;14.20;9.73;;;;;;;17.40;45.53;99929.41;5048408;28;20029;-79
2023/12/25 09:41:01;;;;;;;15.35;13.68;;;;;;;17.44;44.31;99927.81;5048474;28;20414;-80
2023/12/25 09:43:28;;;;;;;11.52;8.10;;;;;;;17.44;42.63;99932.41;5048423;28;20418;-82
2023/12/25 09:45:54;;;;;;;14.18;11.80;;;;;;;18.02;43.95;99935.69;5045223;28;20017;-81
2023/12/25 09:48:19;;;;;;;12.50;8.35;;;;;;;18.51;42.42;99922.63;5048556;28;20029;-80
2023/12/25 09:50:45;;;;;;;14.45;8.48;;;;;;;17.68;40.52;99887.66;5030830;28;20112;-79
2023/12/25 09:53:10;;;;;;;13.32;7.18;;;;;;;18.25;43.60;99882.22;5048200;28;20450;-79
2023/12/25 09:55:36;;;;;;;11.25;6.95;;;;;;;18.53;42.35;99921.28;5050902;28;20021;-80
2023/12/25 09:58:10;;;;;;;10.93;7.43;;;;;;;18.41;42.09;99870.28;5054544;28;20029;-80
2023/12/25 10:00:35;;;;;;;10.45;6.35;;;;;;;18.66;40.00;99884.78;5034408;28;20106;-80
2023/12/25 10:03:03;;;;;;;13.73;6.88;;;;;;;18.87;40.07;99894.41;5052158;28;20468;-80
2023/12/25 10:05:29;;;;;;;11.80;6.93;;;;;;;18.66;40.30;99887.47;5051552;28;20387;-83
2023/12/25 10:07:54;;;;;;;10.38;6.97;;;;;;;18.77;39.93;99889.03;5054663;28;20520;-79
2023/12/25 10:10:27;;;;;;;11.07;6.50;;;;;;;18.12;39.08;99893.56;5051767;28;20086;-79
2023/12/25 10:12:52;;;;;;;11.85;6.28;;;;;;;18.84;39.48;99884.16;5052086;28;20021;-80
2023/12/25 10:15:17;;;;;;;19.73;12.10;;;;;;;18.84;39.77;99877.97;5051825;28;20406;-77
2023/12/25 10:17:43;;;;;;;13.15;7.53;;;;;;;18.67;41.02;99878.25;5050991;28;20033;-79
2023/12/25 10:20:12;;;;;;;13.90;7.55;;;;;;;19.23;38.00;99875.28;5051335;28;20029;-76
2023/12/25 10:22:38;;;;;;;46.22;26.10;;;;;;;19.37;37.28;99880.03;5051182;28;20044;-78
2023/12/25 10:25:13;;;;;;;20.92;12.23;;;;;;;19.76;37.83;99876.53;5050138;28;20032;-78
2023/12/25 10:27:43;;;;;;;14.50;8.93;;;;;;;20.06;36.18;99878.94;5035686;28;20409;-78
2023/12/25 10:30:19;;;;;;;14.05;8.23;;;;;;;20.30;35.63;99880.84;5051389;28;20041;-77
2023/12/25 10:32:47;;;;;;;20.00;13.10;;;;;;;20.23;36.98;99858.75;5051020;28;20028;-78
2023/12/25 10:35:18;;;;;;;11.00;7.00;;;;;;;20.80;35.84;99878.66;5051260;28;20025;-78
2023/12/25 10:37:45;;;;;;;317.10;222.73;;;;;;;20.56;36.30;99864.31;5056731;28;20036;-79
2023/12/25 10:40:25;;;;;;;12.23;6.35;;;;;;;20.42;37.46;99853.38;5051664;28;20116;-76
2023/12/25 10:42:54;;;;;;;10.93;5.70;;;;;;;20.53;36.68;99854.84;5050934;28;20029;-79
2023/12/25 10:45:24;;;;;;;19.70;15.00;;;;;;;21.33;37.24;99864.06;5050976;28;20115;-78
2023/12/25 10:47:52;;;;;;;11.65;7.40;;;;;;;21.18;33.62;99858.88;5053319;28;20036;-76
2023/12/25 10:50:30;;;;;;;10.90;5.30;;;;;;;21.76;35.80;99852.25;5050688;28;20727;-76
2023/12/25 10:52:59;;;;;;;;;;;;;;;21.74;31.16;99863.41;5051379;28;20040;-76
2023/12/25 10:55:37;;;;;;;8.77;5.63;;;;;;;22.61;33.55;99841.94;5050369;28;20362;-77
2023/12/25 10:58:08;;;;;;;14.40;9.50;;;;;;;23.70;32.92;99860.91;5063850;28;20056;-77
2023/12/25 11:00:37;;;;;;;16.58;7.38;;;;;;;23.77;32.52;99850.41;5052348;28;20035;-73
2023/12/25 11:03:03;;;;;;;10.23;4.78;;;;;;;23.43;29.64;99856.41;5070158;28;20412;-76
2023/12/25 11:05:31;;;;;;;31.10;18.45;;;;;;;23.47;30.52;99841.06;5069817;28;20139;-73
2023/12/25 11:07:58;;;;;;;40.25;23.13;;;;;;;24.73;32.25;99828.94;5070563;28;20111;-76
2023/12/25 11:10:27;;;;;;;16.73;11.20;;;;;;;24.84;30.01;99813.03;5064262;28;20095;-77
2023/12/25 11:12:53;;;;;;;12.10;6.75;;;;;;;25.04;29.13;99819.78;5050812;28;20032;-77
2023/12/25 11:15:18;;;;;;;12.18;6.10;;;;;;;24.58;27.38;99832.94;5062563;28;20504;-76
2023/12/25 11:17:44;;;;;;;128.48;74.65;;;;;;;24.03;28.62;99819.78;5055444;28;20067;-78